createdAt,value
2018-09-13T00:00:20.879Z,16.89
2018-09-13T00:02:49.601Z,16.86
2018-09-13T00:05:17.708Z,16.83
2018-09-13T00:07:46.137Z,16.82
2018-09-13T00:10:14.913Z,16.82
2018-09-13T00:12:43.829Z,16.80
2018-09-13T00:15:12.565Z,16.84
2018-09-13T00:17:41.193Z,16.78
2018-09-13T00:20:09.685Z,16.71
2018-09-13T00:22:38.568Z,16.62
2018-09-13T00:25:07.253Z,16.51
2018-09-13T00:27:36.143Z,16.43
2018-09-13T00:30:04.689Z,16.45
2018-09-13T00:32:33.121Z,16.48
2018-09-13T00:35:02.144Z,16.55
2018-09-13T00:37:30.973Z,16.62
2018-09-13T00:39:59.673Z,16.60
2018-09-13T00:42:28.101Z,16.54
2018-09-13T00:44:56.649Z,16.52
2018-09-13T00:47:25.081Z,16.53
2018-09-13T00:49:53.452Z,16.55
2018-09-13T00:52:22.087Z,16.59
2018-09-13T00:54:50.589Z,16.66
2018-09-13T00:57:19.223Z,16.72
2018-09-13T00:59:47.997Z,16.75
2018-09-13T01:02:16.758Z,16.75
2018-09-13T01:04:45.298Z,16.74
2018-09-13T01:07:13.889Z,16.70
2018-09-13T01:09:42.542Z,16.67
2018-09-13T01:12:10.982Z,16.63
2018-09-13T01:14:39.973Z,16.63
2018-09-13T01:17:09.253Z,16.67
2018-09-13T01:19:37.620Z,16.71
2018-09-13T01:22:06.008Z,16.74
2018-09-13T01:24:36.089Z,16.76
2018-09-13T01:27:05.033Z,16.81
2018-09-13T01:29:33.469Z,16.85
2018-09-13T01:32:01.901Z,16.87
2018-09-13T01:34:30.377Z,16.87
2018-09-13T01:36:58.931Z,16.85
2018-09-13T01:39:27.728Z,16.82
2018-09-13T01:41:56.141Z,16.82
2018-09-13T01:44:25.063Z,16.77
2018-09-13T01:46:53.778Z,16.71
2018-09-13T01:49:21.865Z,16.65
2018-09-13T01:51:50.484Z,16.63
2018-09-13T01:54:18.913Z,16.65
2018-09-13T01:56:47.342Z,16.68
2018-09-13T01:59:16.008Z,16.72
2018-09-13T02:01:44.427Z,16.75
2018-09-13T02:04:13.232Z,16.75
2018-09-13T02:06:41.809Z,16.73
2018-09-13T02:09:11.193Z,16.72
2018-09-13T02:11:40.388Z,16.72
2018-09-13T02:14:09.237Z,16.76
2018-09-13T02:16:38.109Z,16.76
2018-09-13T02:19:06.905Z,16.74
2018-09-13T02:21:36.336Z,16.72
2018-09-13T02:24:04.922Z,16.70
2018-09-13T02:26:33.037Z,16.72
2018-09-13T02:29:01.881Z,16.74
2018-09-13T02:31:30.299Z,16.74
2018-09-13T02:33:58.998Z,16.72
2018-09-13T02:36:27.942Z,16.71
2018-09-13T02:38:56.241Z,16.60
2018-09-13T02:41:24.685Z,16.53
2018-09-13T02:43:53.115Z,16.49
2018-09-13T02:46:22.021Z,16.49
2018-09-13T02:48:50.720Z,16.47
2018-09-13T02:51:19.154Z,16.46
2018-09-13T02:53:47.729Z,16.47
2018-09-13T02:56:16.157Z,16.46
2018-09-13T02:58:44.584Z,16.47
2018-09-13T03:01:12.705Z,16.46
2018-09-13T03:03:41.173Z,16.45
2018-09-13T03:06:09.889Z,16.45
2018-09-13T03:08:38.689Z,16.45
2018-09-13T03:11:07.373Z,16.48
2018-09-13T03:13:36.438Z,16.54
2018-09-13T03:16:04.735Z,16.60
2018-09-13T03:18:33.373Z,16.66
2018-09-13T03:21:02.109Z,16.70
2018-09-13T03:23:30.537Z,16.71
2018-09-13T03:25:59.203Z,16.72
2018-09-13T03:28:27.645Z,16.74
2018-09-13T03:30:56.085Z,16.75
2018-09-13T03:33:24.741Z,16.73
2018-09-13T03:35:53.485Z,16.75
2018-09-13T03:38:22.182Z,16.77
2018-09-13T03:40:50.272Z,16.78
2018-09-13T03:43:18.803Z,16.78
2018-09-13T03:45:47.544Z,16.77
2018-09-13T03:48:16.200Z,16.78
2018-09-13T03:50:45.089Z,16.82
2018-09-13T03:53:13.741Z,16.84
2018-09-13T03:55:42.489Z,16.85
2018-09-13T03:58:11.101Z,16.84
2018-09-13T04:00:39.545Z,16.83
2018-09-13T04:03:08.168Z,16.85
2018-09-13T04:05:36.772Z,16.86
2018-09-13T04:08:05.183Z,16.86
2018-09-13T04:10:34.117Z,16.82
2018-09-13T04:13:02.205Z,16.72
2018-09-13T04:15:30.641Z,16.61
2018-09-13T04:17:59.268Z,16.47
2018-09-13T04:20:27.881Z,16.38
2018-09-13T04:22:56.917Z,16.30
2018-09-13T04:25:25.357Z,16.27
2018-09-13T04:27:53.810Z,16.24
2018-09-13T04:30:22.449Z,16.23
2018-09-13T04:32:51.449Z,16.23
2018-09-13T04:35:19.873Z,16.24
2018-09-13T04:37:48.580Z,16.22
2018-09-13T04:40:18.253Z,16.19
2018-09-13T04:42:46.666Z,16.13
2018-09-13T04:45:15.290Z,16.06
2018-09-13T04:47:43.977Z,16.03
2018-09-13T04:50:12.424Z,16.04
2018-09-13T04:52:41.122Z,16.07
2018-09-13T04:55:09.561Z,16.12
2018-09-13T04:57:38.270Z,16.15
2018-09-13T05:00:06.378Z,16.15
2018-09-13T05:07:38.001Z,16.07
2018-09-13T05:10:06.626Z,16.03
2018-09-13T05:12:35.247Z,16.04
2018-09-13T05:15:03.922Z,16.08
2018-09-13T05:17:32.356Z,16.10
2018-09-13T05:20:00.869Z,16.06
2018-09-13T05:22:28.964Z,16.00
2018-09-13T05:24:57.405Z,15.95
2018-09-13T05:27:25.849Z,15.94
2018-09-13T05:29:53.957Z,15.96
2018-09-13T05:32:22.621Z,15.96
2018-09-13T05:34:51.065Z,15.96
2018-09-13T05:37:19.500Z,15.95
2018-09-13T05:39:47.941Z,15.96
2018-09-13T05:42:16.398Z,15.97
2018-09-13T05:44:44.916Z,15.96
2018-09-13T05:47:13.182Z,15.97
2018-09-13T05:49:41.641Z,15.95
2018-09-13T05:52:09.986Z,15.96
2018-09-13T05:54:38.420Z,15.96
2018-09-13T05:57:07.106Z,15.97
2018-09-13T05:59:35.589Z,15.98
2018-09-13T06:02:03.700Z,16.01
2018-09-13T06:04:32.160Z,16.02
2018-09-13T06:07:00.621Z,16.02
2018-09-13T06:09:29.082Z,16.02
2018-09-13T06:11:57.541Z,16.05
2018-09-13T06:14:25.681Z,16.04
2018-09-13T06:16:54.126Z,16.03
2018-09-13T06:19:22.562Z,16.03
2018-09-13T06:21:51.078Z,16.02
2018-09-13T06:24:19.521Z,15.99
2018-09-13T06:26:48.407Z,15.96
2018-09-13T06:29:16.841Z,15.95
2018-09-13T06:31:45.277Z,15.89
2018-09-13T06:34:13.369Z,15.85
2018-09-13T06:36:42.039Z,15.83
2018-09-13T06:39:11.320Z,15.90
2018-09-13T06:41:39.793Z,15.94
2018-09-13T06:44:09.536Z,15.99
2018-09-13T06:46:38.049Z,16.04
2018-09-13T06:49:06.765Z,16.09
2018-09-13T06:51:35.356Z,16.14
2018-09-13T06:54:03.726Z,16.22
2018-09-13T06:56:33.013Z,16.29
2018-09-13T06:59:01.501Z,16.33
2018-09-13T07:01:29.614Z,16.33
2018-09-13T07:03:58.049Z,16.37
2018-09-13T07:06:26.622Z,16.40
2018-09-13T07:08:55.092Z,16.39
2018-09-13T07:11:23.401Z,16.38
2018-09-13T07:13:51.505Z,16.40
2018-09-13T07:16:19.944Z,16.46
2018-09-13T07:18:48.393Z,16.52
2018-09-13T07:21:17.073Z,16.59
2018-09-13T07:23:45.351Z,16.59
2018-09-13T07:26:13.853Z,16.58
2018-09-13T07:28:42.317Z,16.55
2018-09-13T07:31:10.760Z,16.54
2018-09-13T07:33:39.313Z,16.62
2018-09-13T07:36:07.412Z,16.71
2018-09-13T07:38:35.853Z,16.77
2018-09-13T07:41:04.365Z,16.73
2018-09-13T07:43:32.809Z,16.71
2018-09-13T07:46:01.233Z,16.74
2018-09-13T07:48:29.895Z,16.76
2018-09-13T07:50:58.582Z,16.78
2018-09-13T07:53:27.017Z,16.77
2018-09-13T07:55:55.470Z,16.70
2018-09-13T07:58:24.050Z,16.61
2018-09-13T08:00:52.696Z,16.54
2018-09-13T08:03:21.353Z,16.55
2018-09-13T08:05:50.007Z,16.60
2018-09-13T08:08:18.466Z,16.62
2018-09-13T08:10:47.166Z,16.67
2018-09-13T08:13:15.614Z,16.70
2018-09-13T08:15:44.314Z,16.76
2018-09-13T08:18:12.916Z,16.81
2018-09-13T08:20:41.567Z,16.87
2018-09-13T08:23:09.828Z,16.94
2018-09-13T08:25:38.256Z,17.03
2018-09-13T08:28:06.557Z,17.06
2018-09-13T08:30:35.176Z,17.06
2018-09-13T08:33:03.841Z,17.04
2018-09-13T08:35:32.602Z,17.03
2018-09-13T08:38:01.189Z,17.05
2018-09-13T08:40:29.668Z,17.09
2018-09-13T08:42:58.119Z,17.16
2018-09-13T08:45:26.401Z,17.21
2018-09-13T08:47:54.821Z,17.25
2018-09-13T08:50:23.266Z,17.31
2018-09-13T08:52:51.560Z,17.37
2018-09-13T08:55:19.846Z,17.39
2018-09-13T08:57:47.949Z,17.39
2018-09-13T09:00:16.989Z,17.42
2018-09-13T09:02:45.097Z,17.43
2018-09-13T09:05:13.551Z,17.46
2018-09-13T09:07:41.685Z,17.31
2018-09-13T09:10:10.176Z,17.23
2018-09-13T09:12:38.272Z,17.20
2018-09-13T09:15:06.633Z,17.20
2018-09-13T09:17:35.097Z,17.13
2018-09-13T09:20:03.551Z,17.09
2018-09-13T09:22:32.045Z,17.05
2018-09-13T09:25:00.732Z,16.96
2018-09-13T09:27:29.165Z,16.87
2018-09-13T09:29:57.715Z,16.78
2018-09-13T09:32:26.737Z,16.77
2018-09-13T09:34:55.111Z,16.83
2018-09-13T09:37:23.745Z,16.87
2018-09-13T09:39:52.243Z,16.86
2018-09-13T09:42:20.822Z,16.87
2018-09-13T09:44:49.287Z,16.87
2018-09-13T09:47:17.913Z,16.89
2018-09-13T09:49:46.626Z,17.00
2018-09-13T09:52:14.903Z,17.12
2018-09-13T09:54:43.548Z,17.18
2018-09-13T09:57:12.206Z,17.27
2018-09-13T09:59:40.638Z,17.45
2018-09-13T10:02:14.510Z,17.53
2018-09-13T10:04:43.070Z,17.56
2018-09-13T10:07:13.324Z,17.57
2018-09-13T10:09:42.037Z,17.67
2018-09-13T10:12:11.525Z,17.87
2018-09-13T10:14:40.070Z,18.14
2018-09-13T10:17:13.761Z,18.49
2018-09-13T10:19:47.572Z,18.76
2018-09-13T10:22:21.857Z,18.87
2018-09-13T10:24:55.986Z,18.84
2018-09-13T10:27:29.843Z,18.74
2018-09-13T10:30:03.800Z,18.67
2018-09-13T10:32:37.497Z,18.66
2018-09-13T10:35:11.337Z,18.62
2018-09-13T10:37:44.990Z,18.65
2018-09-13T10:40:18.960Z,18.66
2018-09-13T10:42:52.805Z,18.58
2018-09-13T10:46:30.985Z,18.57
2018-09-13T10:49:04.713Z,18.60
2018-09-13T10:51:38.521Z,18.59
2018-09-13T10:54:11.609Z,18.58
2018-09-13T10:56:40.869Z,18.51
2018-09-13T10:59:09.245Z,18.49
2018-09-13T11:01:38.261Z,18.50
2018-09-13T11:04:06.805Z,18.48
2018-09-13T11:06:35.631Z,18.45
2018-09-13T11:09:04.921Z,18.39
2018-09-13T11:11:33.422Z,18.35
2018-09-13T11:14:07.243Z,18.33
2018-09-13T11:16:35.330Z,18.31
2018-09-13T11:19:04.018Z,18.31
2018-09-13T11:21:32.459Z,18.31
2018-09-13T11:24:00.995Z,18.31
2018-09-13T11:26:29.309Z,18.30
2018-09-13T11:28:57.725Z,18.25
2018-09-13T11:31:25.867Z,18.31
2018-09-13T11:33:54.725Z,18.51
2018-09-13T11:36:23.401Z,18.98
2018-09-13T11:38:51.509Z,19.58
2018-09-13T11:41:19.617Z,19.99
2018-09-13T11:43:48.464Z,20.12
2018-09-13T11:46:17.176Z,20.14
2018-09-13T11:48:45.273Z,20.13
2018-09-13T11:51:13.700Z,20.14
2018-09-13T11:53:42.175Z,20.28
2018-09-13T11:56:10.849Z,20.51
2018-09-13T11:58:39.281Z,20.57
2018-09-13T12:01:07.419Z,20.60
2018-09-13T12:03:36.013Z,20.66
2018-09-13T12:06:04.689Z,20.72
2018-09-13T12:08:33.173Z,20.83
2018-09-13T12:11:01.614Z,21.00
2018-09-13T12:13:30.037Z,21.19
2018-09-13T12:15:58.146Z,21.10
2018-09-13T12:18:26.643Z,20.98
2018-09-13T12:20:55.297Z,21.08
2018-09-13T12:23:23.733Z,21.15
2018-09-13T12:25:52.397Z,21.33
2018-09-13T12:28:21.073Z,21.29
2018-09-13T12:30:50.142Z,21.25
2018-09-13T12:33:18.631Z,21.33
2018-09-13T12:35:46.747Z,21.66
2018-09-13T12:38:15.929Z,21.84
2018-09-13T12:40:44.263Z,21.81
2018-09-13T12:43:13.210Z,21.70
2018-09-13T12:45:41.644Z,21.77
2018-09-13T12:48:10.077Z,22.17
2018-09-13T12:50:38.497Z,22.50
2018-09-13T12:53:06.620Z,22.42
2018-09-13T12:55:40.145Z,22.22
2018-09-13T12:58:08.493Z,22.03
2018-09-13T13:00:36.817Z,21.93
2018-09-13T13:03:05.547Z,21.99
2018-09-13T13:05:33.651Z,22.20
2018-09-13T13:08:02.110Z,22.48
2018-09-13T13:10:30.581Z,22.65
2018-09-13T13:12:59.241Z,22.54
2018-09-13T13:15:27.861Z,22.34
2018-09-13T13:17:56.213Z,21.98
2018-09-13T13:20:24.485Z,21.59
2018-09-13T13:22:53.436Z,21.30
2018-09-13T13:25:21.521Z,21.08
2018-09-13T13:27:50.553Z,20.97
2018-09-13T13:30:19.169Z,20.76
2018-09-13T13:32:47.621Z,20.61
2018-09-13T13:35:16.057Z,20.34
2018-09-13T13:37:44.492Z,20.14
2018-09-13T13:40:12.917Z,20.07
2018-09-13T13:42:41.610Z,20.11
2018-09-13T13:45:09.728Z,20.09
2018-09-13T13:47:38.324Z,20.02
2018-09-13T13:50:06.689Z,19.94
2018-09-13T13:52:35.114Z,19.86
2018-09-13T13:55:03.801Z,19.79
2018-09-13T13:57:32.282Z,19.80
2018-09-13T14:00:00.746Z,19.90
2018-09-13T14:02:29.363Z,20.01
2018-09-13T14:04:57.785Z,19.99
2018-09-13T14:07:26.445Z,19.99
2018-09-13T14:09:55.047Z,19.97
2018-09-13T14:12:23.877Z,19.99
2018-09-13T14:14:51.987Z,19.96
2018-09-13T14:17:20.402Z,19.95
2018-09-13T14:19:48.833Z,19.91
2018-09-13T14:22:17.593Z,19.91
2018-09-13T14:24:46.025Z,19.85
2018-09-13T14:27:14.129Z,19.79
2018-09-13T14:29:42.580Z,19.80
2018-09-13T14:32:11.280Z,19.88
2018-09-13T14:34:39.714Z,19.93
2018-09-13T14:37:08.152Z,19.96
2018-09-13T14:39:36.582Z,19.99
2018-09-13T14:42:04.997Z,20.05
2018-09-13T14:44:33.665Z,20.28
2018-09-13T14:47:02.009Z,20.69
2018-09-13T14:49:30.311Z,21.10
2018-09-13T14:51:58.641Z,21.47
2018-09-13T14:54:27.072Z,21.64
2018-09-13T14:56:55.704Z,21.81
2018-09-13T14:59:24.374Z,22.00
2018-09-13T15:01:52.799Z,22.09
2018-09-13T15:04:21.270Z,22.05
2018-09-13T15:06:50.010Z,21.87
2018-09-13T15:09:18.929Z,21.67
2018-09-13T15:11:47.040Z,21.53
2018-09-13T15:14:15.669Z,21.44
2018-09-13T15:16:44.106Z,21.58
2018-09-13T15:19:12.597Z,21.81
2018-09-13T15:21:41.033Z,21.98
2018-09-13T15:24:09.492Z,22.02
2018-09-13T15:26:38.093Z,21.94
2018-09-13T15:29:06.682Z,22.00
2018-09-13T15:31:35.111Z,22.13
2018-09-13T15:34:03.532Z,22.18
2018-09-13T15:36:32.114Z,22.29
2018-09-13T15:39:00.541Z,22.49
2018-09-13T15:41:29.221Z,22.66
2018-09-13T15:43:57.657Z,22.70
2018-09-13T15:46:26.426Z,22.74
2018-09-13T15:48:54.850Z,22.67
2018-09-13T15:51:23.525Z,22.52
2018-09-13T15:53:51.948Z,22.44
2018-09-13T15:56:20.389Z,22.40
2018-09-13T15:58:48.829Z,22.46
2018-09-13T16:01:17.508Z,22.50
2018-09-13T16:03:46.077Z,22.47
2018-09-13T16:06:14.774Z,22.34
2018-09-13T16:08:42.861Z,22.22
2018-09-13T16:11:11.340Z,22.15
2018-09-13T16:13:39.989Z,21.98
2018-09-13T16:16:08.577Z,21.79
2018-09-13T16:18:36.696Z,21.63
2018-09-13T16:21:04.823Z,21.51
2018-09-13T16:23:33.119Z,21.44
2018-09-13T16:26:01.824Z,21.44
2018-09-13T16:28:30.398Z,21.40
2018-09-13T16:30:58.845Z,21.26
2018-09-13T16:33:26.937Z,21.10
2018-09-13T16:35:55.793Z,20.96
2018-09-13T16:38:31.030Z,20.76
2018-09-13T16:41:05.906Z,20.66
2018-09-13T16:43:39.570Z,20.65
2018-09-13T16:46:14.233Z,20.55
2018-09-13T16:48:44.281Z,20.44
2018-09-13T16:51:13.289Z,20.33
2018-09-13T16:53:41.712Z,20.27
2018-09-13T16:56:09.822Z,20.20
2018-09-13T16:58:38.242Z,20.13
2018-09-13T17:01:06.586Z,20.10
2018-09-13T17:03:34.694Z,20.07
2018-09-13T17:06:03.124Z,20.04
2018-09-13T17:08:31.541Z,20.03
2018-09-13T17:11:00.221Z,20.00
2018-09-13T17:13:28.568Z,19.97
2018-09-13T17:15:57.269Z,19.92
2018-09-13T17:18:25.730Z,19.81
2018-09-13T17:20:54.165Z,19.67
2018-09-13T17:23:22.834Z,19.50
2018-09-13T17:25:50.933Z,19.34
2018-09-13T17:28:19.365Z,19.27
2018-09-13T17:30:47.457Z,19.23
2018-09-13T17:33:15.962Z,19.15
2018-09-13T17:35:44.401Z,19.04
2018-09-13T17:38:12.497Z,18.95
2018-09-13T17:40:41.057Z,18.86
2018-09-13T17:43:09.221Z,18.83
2018-09-13T17:45:37.649Z,18.81
2018-09-13T17:48:06.136Z,18.82
2018-09-13T17:50:34.775Z,18.86
2018-09-13T17:53:03.426Z,18.88
2018-09-13T17:55:33.141Z,18.85
2018-09-13T18:00:52.172Z,18.54
2018-09-13T18:03:20.346Z,18.44
2018-09-13T18:05:48.662Z,18.36
2018-09-13T18:08:16.825Z,18.31
2018-09-13T18:10:45.532Z,18.31
2018-09-13T18:13:13.715Z,18.38
2018-09-13T18:15:41.878Z,18.40
2018-09-13T18:18:10.416Z,18.39
2018-09-13T18:20:38.742Z,18.30
2018-09-13T18:23:07.200Z,18.14
2018-09-13T18:25:35.299Z,17.94
2018-09-13T18:28:04.080Z,17.76
2018-09-13T18:30:32.221Z,17.69
2018-09-13T18:33:00.533Z,17.60
2018-09-13T18:35:29.084Z,17.53
2018-09-13T18:37:57.553Z,17.42
2018-09-13T18:40:25.662Z,17.27
2018-09-13T18:42:53.815Z,17.15
2018-09-13T18:45:22.412Z,17.05
2018-09-13T18:47:50.601Z,16.92
2018-09-13T18:50:18.790Z,16.82
2018-09-13T18:52:46.996Z,16.78
2018-09-13T18:55:15.612Z,16.73
2018-09-13T18:57:44.093Z,16.68
2018-09-13T19:00:12.628Z,16.65
2018-09-13T19:02:40.952Z,16.60
2018-09-13T19:05:09.304Z,16.54
2018-09-13T19:07:37.428Z,16.48
2018-09-13T19:10:05.973Z,16.45
2018-09-13T19:12:34.098Z,16.36
2018-09-13T19:15:02.259Z,16.24
2018-09-13T19:17:30.908Z,16.10
2018-09-13T19:19:59.376Z,16.03
2018-09-13T19:22:27.481Z,16.03
2018-09-13T19:24:55.616Z,16.02
2018-09-13T19:27:23.924Z,15.98
2018-09-13T19:29:52.380Z,15.93
2018-09-13T19:32:20.832Z,15.86
2018-09-13T19:34:49.175Z,15.81
2018-09-13T19:37:17.467Z,15.78
2018-09-13T19:39:45.598Z,15.76
2018-09-13T19:42:15.408Z,15.75
2018-09-13T19:44:43.540Z,15.71
2018-09-13T19:47:11.688Z,15.65
2018-09-13T19:49:39.829Z,15.60
2018-09-13T19:52:08.543Z,15.56
2018-09-13T19:54:37.312Z,15.48
2018-09-13T19:57:05.785Z,15.36
2018-09-13T19:59:34.284Z,15.29
2018-09-13T20:02:02.724Z,15.22
2018-09-13T20:04:30.891Z,15.16
2018-09-13T20:06:59.160Z,15.09
2018-09-13T20:09:27.424Z,15.00
2018-09-13T20:11:56.131Z,14.94
2018-09-13T20:14:24.436Z,14.90
2018-09-13T20:16:52.556Z,14.87
2018-09-13T20:19:20.858Z,14.82
2018-09-13T20:21:49.320Z,14.75
2018-09-13T20:24:17.451Z,14.70
2018-09-13T20:26:45.609Z,14.67
2018-09-13T20:29:13.744Z,14.63
2018-09-13T20:31:42.188Z,14.63
2018-09-13T20:34:10.328Z,14.62
2018-09-13T20:36:38.776Z,14.60
2018-09-13T20:39:09.458Z,14.54
2018-09-13T20:41:37.955Z,14.53
2018-09-13T20:44:06.383Z,14.51
2018-09-13T20:46:34.845Z,14.49
2018-09-13T20:49:03.000Z,14.45
2018-09-13T20:51:31.124Z,14.39
2018-09-13T20:53:59.289Z,14.29
2018-09-13T20:56:27.417Z,14.22
2018-09-13T20:58:55.872Z,14.18
2018-09-13T21:01:24.211Z,14.14
2018-09-13T21:03:52.512Z,14.07
2018-09-13T21:06:21.621Z,14.03
2018-09-13T21:08:49.741Z,13.96
2018-09-13T21:11:18.123Z,13.94
2018-09-13T21:13:46.252Z,13.88
2018-09-13T21:16:15.900Z,13.80
2018-09-13T21:18:44.379Z,13.75
2018-09-13T21:21:12.838Z,13.71
2018-09-13T21:23:41.508Z,13.68
2018-09-13T21:26:10.176Z,13.65
2018-09-13T21:28:38.412Z,13.65
2018-09-13T21:31:06.544Z,13.66
2018-09-13T21:33:35.066Z,13.66
2018-09-13T21:36:03.389Z,13.65
2018-09-13T21:38:31.740Z,13.65
2018-09-13T21:41:00.229Z,13.61
2018-09-13T21:43:28.344Z,13.57
2018-09-13T21:45:56.473Z,13.50
2018-09-13T21:48:24.787Z,13.43
2018-09-13T21:50:53.251Z,13.39
2018-09-13T21:53:21.557Z,13.37
2018-09-13T21:55:50.213Z,13.37
2018-09-13T21:58:18.850Z,13.34
2018-09-13T22:00:47.181Z,13.32
2018-09-13T22:03:15.312Z,13.28
2018-09-13T22:05:43.780Z,13.26
2018-09-13T22:08:11.975Z,13.28
2018-09-13T22:10:40.289Z,13.30
2018-09-13T22:13:08.400Z,13.32
2018-09-13T22:15:36.527Z,13.32
2018-09-13T22:18:04.978Z,13.33
2018-09-13T22:20:34.117Z,13.34
2018-09-13T22:23:02.532Z,13.34
2018-09-13T22:25:31.024Z,13.30
2018-09-13T22:27:59.144Z,13.18
2018-09-13T22:30:27.588Z,13.09
2018-09-13T22:32:56.052Z,13.06
2018-09-13T22:35:24.496Z,12.99
2018-09-13T22:37:52.958Z,12.95
2018-09-13T22:40:21.416Z,12.94
2018-09-13T22:42:49.728Z,12.94
2018-09-13T22:45:17.839Z,12.94
2018-09-13T22:47:46.025Z,12.94
2018-09-13T22:50:14.515Z,12.95
2018-09-13T22:52:42.683Z,12.94
2018-09-13T22:55:11.360Z,12.93
2018-09-13T22:57:39.820Z,12.91
2018-09-13T23:00:08.245Z,12.88
2018-09-13T23:02:42.104Z,12.85
2018-09-13T23:05:10.616Z,12.84
2018-09-13T23:07:38.876Z,12.82
2018-09-13T23:10:07.043Z,12.81
2018-09-13T23:12:35.172Z,12.79
2018-09-13T23:15:03.832Z,12.75
2018-09-13T23:17:32.534Z,12.68
2018-09-13T23:20:00.796Z,12.58
2018-09-13T23:22:29.128Z,12.52
2018-09-13T23:24:57.572Z,12.45
2018-09-13T23:27:25.704Z,12.40
2018-09-13T23:29:53.815Z,12.33
2018-09-13T23:32:21.947Z,12.28
2018-09-13T23:34:50.401Z,12.23
2018-09-13T23:37:19.141Z,12.16
2018-09-13T23:39:47.675Z,12.11
2018-09-13T23:42:15.824Z,12.06
2018-09-13T23:44:43.943Z,12.04
2018-09-13T23:47:12.265Z,12.04
2018-09-13T23:49:40.385Z,12.03
2018-09-13T23:52:08.544Z,11.97
2018-09-13T23:54:36.856Z,11.90
2018-09-13T23:57:04.984Z,11.83
2018-09-13T23:59:33.092Z,11.80
